createdAt,value
2019-03-18T00:00:56.106Z,73.91
2019-03-18T00:03:25.643Z,74.17
2019-03-18T00:05:55.515Z,73.84
2019-03-18T00:08:24.751Z,73.91
2019-03-18T00:10:54.211Z,73.79
2019-03-18T00:13:23.764Z,74.25
2019-03-18T00:15:53.248Z,74.37
2019-03-18T00:18:22.744Z,74.72
2019-03-18T00:20:52.361Z,74.49
2019-03-18T00:23:22.056Z,74.57
2019-03-18T00:25:51.580Z,74.49
2019-03-18T00:28:21.162Z,74.26
2019-03-18T00:30:50.694Z,74.45
2019-03-18T00:33:20.237Z,74.38
2019-03-18T00:35:49.799Z,74.69
2019-03-18T00:38:19.470Z,74.51
2019-03-18T00:40:49.068Z,74.69
2019-03-18T00:43:18.629Z,74.75
2019-03-18T00:45:48.156Z,74.46
2019-03-18T00:48:17.692Z,74.98
2019-03-18T00:50:47.148Z,75.43
2019-03-18T00:53:16.599Z,75.33
2019-03-18T00:55:46.086Z,75.29
2019-03-18T00:58:15.522Z,75.37
2019-03-18T01:00:44.987Z,75.19
2019-03-18T01:03:14.745Z,74.64
2019-03-18T01:05:44.285Z,74.46
2019-03-18T01:08:13.971Z,74.78
2019-03-18T01:10:43.460Z,74.58
2019-03-18T01:13:13.063Z,74.69
2019-03-18T01:15:42.671Z,75.18
2019-03-18T01:18:12.564Z,75.44
2019-03-18T01:20:42.095Z,75.61
2019-03-18T01:23:12.216Z,75.73
2019-03-18T01:25:41.822Z,75.71
2019-03-18T01:28:11.950Z,75.81
2019-03-18T01:30:41.517Z,76.10
2019-03-18T01:33:10.721Z,76.07
2019-03-18T01:35:40.216Z,76.24
2019-03-18T01:38:09.756Z,76.34
2019-03-18T01:40:39.293Z,76.70
2019-03-18T01:43:08.847Z,76.11
2019-03-18T01:45:40.869Z,75.61
2019-03-18T01:48:10.721Z,75.40
2019-03-18T01:50:40.329Z,75.89
2019-03-18T01:53:09.957Z,75.91
2019-03-18T01:55:39.561Z,75.75
2019-03-18T01:58:09.148Z,75.62
2019-03-18T02:00:38.819Z,75.87
2019-03-18T02:03:08.278Z,75.77
2019-03-18T02:05:37.735Z,75.33
2019-03-18T02:08:07.312Z,74.66
2019-03-18T02:10:36.797Z,74.66
2019-03-18T02:13:06.137Z,74.90
2019-03-18T02:15:35.624Z,74.99
2019-03-18T02:18:05.145Z,75.19
2019-03-18T02:20:34.720Z,74.99
2019-03-18T02:23:04.295Z,75.16
2019-03-18T02:25:33.775Z,75.20
2019-03-18T02:28:03.229Z,74.91
2019-03-18T02:30:32.845Z,74.93
2019-03-18T02:33:02.320Z,75.10
2019-03-18T02:35:31.895Z,74.87
2019-03-18T02:38:01.490Z,75.09
2019-03-18T02:40:30.905Z,74.71
2019-03-18T02:43:00.581Z,75.11
2019-03-18T02:45:30.181Z,75.38
2019-03-18T02:47:59.513Z,75.16
2019-03-18T02:50:29.064Z,74.78
2019-03-18T02:52:58.602Z,74.92
2019-03-18T02:55:28.086Z,74.34
2019-03-18T02:57:57.418Z,74.49
2019-03-18T03:00:27.142Z,74.53
2019-03-18T03:02:56.638Z,73.91
2019-03-18T03:05:26.102Z,73.65
2019-03-18T03:07:55.587Z,73.26
2019-03-18T03:10:25.122Z,73.75
2019-03-18T03:12:54.745Z,73.33
2019-03-18T03:15:24.272Z,72.94
2019-03-18T03:17:53.753Z,72.91
2019-03-18T03:20:23.298Z,72.72
2019-03-18T03:22:52.842Z,72.84
2019-03-18T03:25:24.898Z,72.89
2019-03-18T03:27:53.344Z,73.20
2019-03-18T03:30:22.817Z,73.43
2019-03-18T03:32:52.442Z,73.69
2019-03-18T03:35:21.954Z,73.51
2019-03-18T03:37:51.623Z,73.61
2019-03-18T03:40:21.197Z,73.66
2019-03-18T03:42:50.550Z,73.77
2019-03-18T03:48:29.523Z,73.50
2019-03-18T03:50:59.110Z,73.60
2019-03-18T03:53:30.904Z,73.15
2019-03-18T03:55:59.882Z,73.17
2019-03-18T03:58:29.522Z,72.88
2019-03-18T04:00:59.521Z,72.68
2019-03-18T04:03:38.438Z,72.67
2019-03-18T04:06:00.610Z,72.65
2019-03-18T04:08:30.232Z,72.59
2019-03-18T04:10:59.781Z,72.36
2019-03-18T04:13:29.267Z,72.64
2019-03-18T04:16:00.383Z,72.80
2019-03-18T04:18:29.976Z,71.97
2019-03-18T04:20:59.279Z,71.99
2019-03-18T04:23:28.817Z,72.04
2019-03-18T04:25:58.252Z,71.45
2019-03-18T04:28:27.698Z,71.29
2019-03-18T04:30:57.197Z,71.81
2019-03-18T04:33:26.642Z,71.66
2019-03-18T04:35:56.223Z,71.42
2019-03-18T04:38:25.658Z,71.02
2019-03-18T04:40:55.146Z,71.37
2019-03-18T04:43:24.793Z,70.83
2019-03-18T04:45:54.193Z,70.84
2019-03-18T04:48:26.004Z,71.29
2019-03-18T04:50:55.518Z,71.11
2019-03-18T04:53:24.969Z,71.19
2019-03-18T04:55:54.710Z,71.76
2019-03-18T04:58:24.173Z,71.45
2019-03-18T05:00:53.651Z,71.02
2019-03-18T05:03:22.843Z,70.73
2019-03-18T05:05:52.163Z,71.40
2019-03-18T05:08:21.704Z,71.59
2019-03-18T05:10:51.243Z,71.29
2019-03-18T05:13:20.882Z,70.87
2019-03-18T05:15:50.405Z,71.07
2019-03-18T05:18:19.944Z,71.26
2019-03-18T05:20:49.498Z,70.95
2019-03-18T05:23:18.772Z,70.47
2019-03-18T05:25:48.328Z,70.24
2019-03-18T05:28:17.789Z,71.06
2019-03-18T05:30:47.265Z,71.06
2019-03-18T05:33:16.814Z,70.95
2019-03-18T05:35:46.565Z,71.01
2019-03-18T05:38:16.086Z,70.20
2019-03-18T05:40:45.602Z,70.52
2019-03-18T05:43:15.099Z,70.38
2019-03-18T05:45:44.683Z,70.35
2019-03-18T05:48:14.561Z,70.81
2019-03-18T05:50:45.438Z,70.69
2019-03-18T05:53:15.453Z,71.00
2019-03-18T05:55:45.200Z,70.69
2019-03-18T05:58:14.674Z,70.84
2019-03-18T06:00:45.109Z,70.78
2019-03-18T06:03:14.669Z,70.08
2019-03-18T06:05:44.271Z,70.23
2019-03-18T06:08:13.464Z,69.03
2019-03-18T06:10:42.662Z,67.15
2019-03-18T06:13:12.297Z,67.16
2019-03-18T06:15:41.836Z,65.99
2019-03-18T06:18:11.542Z,64.34
2019-03-18T06:20:42.164Z,61.72
2019-03-18T06:23:11.416Z,62.23
2019-03-18T06:25:41.035Z,62.48
2019-03-18T06:28:10.720Z,62.43
2019-03-18T06:30:40.259Z,61.45
2019-03-18T06:33:10.412Z,61.79
2019-03-18T06:35:39.934Z,60.86
2019-03-18T06:38:10.213Z,62.43
2019-03-18T06:40:39.447Z,62.81
2019-03-18T06:43:09.390Z,64.26
2019-03-18T06:45:38.905Z,64.91
2019-03-18T06:48:09.353Z,64.78
2019-03-18T06:50:39.696Z,64.60
2019-03-18T06:53:09.678Z,64.59
2019-03-18T06:55:39.135Z,64.57
2019-03-18T06:58:08.663Z,65.05
2019-03-18T07:00:38.306Z,65.72
2019-03-18T07:03:08.114Z,65.61
2019-03-18T07:05:37.540Z,65.51
2019-03-18T07:08:07.081Z,65.76
2019-03-18T07:10:36.899Z,65.50
2019-03-18T07:13:06.182Z,64.95
2019-03-18T07:15:35.652Z,63.94
2019-03-18T07:18:17.565Z,63.45
2019-03-18T07:20:36.580Z,62.78
2019-03-18T07:23:06.085Z,63.28
2019-03-18T07:25:35.673Z,63.28
2019-03-18T07:28:04.860Z,63.12
2019-03-18T07:30:34.403Z,64.04
2019-03-18T07:33:03.989Z,63.24
2019-03-18T07:35:33.477Z,62.46
2019-03-18T07:38:02.998Z,61.63
2019-03-18T07:40:32.542Z,60.53
2019-03-18T07:43:02.067Z,60.65
2019-03-18T07:45:31.540Z,60.93
2019-03-18T07:48:01.173Z,62.01
2019-03-18T07:50:30.979Z,61.96
2019-03-18T07:53:00.569Z,62.38
2019-03-18T07:55:30.134Z,62.45
2019-03-18T07:57:59.762Z,62.07
2019-03-18T08:00:29.390Z,62.57
2019-03-18T08:02:59.201Z,62.85
2019-03-18T08:05:28.691Z,62.06
2019-03-18T08:07:58.222Z,62.12
2019-03-18T08:10:27.847Z,62.75
2019-03-18T08:12:57.324Z,62.95
2019-03-18T08:15:26.841Z,62.66
2019-03-18T08:17:56.123Z,61.63
2019-03-18T08:20:25.847Z,60.84
2019-03-18T08:22:55.308Z,61.48
2019-03-18T08:25:24.532Z,61.25
2019-03-18T08:27:54.056Z,61.71
2019-03-18T08:30:23.605Z,60.61
2019-03-18T08:32:53.036Z,60.08
2019-03-18T08:35:22.532Z,60.61
2019-03-18T08:37:54.791Z,59.16
2019-03-18T08:40:23.347Z,59.67
2019-03-18T08:42:52.907Z,60.45
2019-03-18T08:45:22.487Z,60.10
2019-03-18T08:47:51.994Z,59.53
2019-03-18T08:50:22.349Z,59.56
2019-03-18T08:52:51.907Z,59.48
2019-03-18T08:55:21.460Z,59.45
2019-03-18T08:57:51.088Z,59.00
2019-03-18T09:00:20.894Z,58.57
2019-03-18T09:02:50.619Z,58.13
2019-03-18T09:05:20.121Z,58.55
2019-03-18T09:07:49.687Z,58.65
2019-03-18T09:10:19.404Z,58.78
2019-03-18T09:12:48.949Z,58.92
2019-03-18T09:15:18.470Z,58.42
2019-03-18T09:17:47.656Z,58.46
2019-03-18T09:20:18.153Z,58.26
2019-03-18T09:22:47.770Z,58.13
2019-03-18T09:25:17.367Z,57.75
2019-03-18T09:27:46.947Z,57.83
2019-03-18T09:30:19.307Z,57.43
2019-03-18T09:32:48.820Z,57.36
2019-03-18T09:35:18.444Z,57.56
2019-03-18T09:37:47.977Z,57.01
2019-03-18T09:40:17.849Z,56.89
2019-03-18T09:42:47.406Z,57.53
2019-03-18T09:45:17.988Z,57.39
2019-03-18T09:47:47.589Z,57.33
2019-03-18T09:50:17.276Z,57.08
2019-03-18T09:52:46.876Z,57.09
2019-03-18T09:55:16.514Z,57.70
2019-03-18T09:57:46.087Z,58.16
2019-03-18T10:00:16.813Z,58.80
2019-03-18T10:02:46.253Z,58.62
2019-03-18T10:05:15.738Z,59.13
2019-03-18T10:07:45.341Z,59.57
2019-03-18T10:10:15.131Z,59.40
2019-03-18T10:12:44.594Z,59.11
2019-03-18T10:15:17.482Z,57.93
2019-03-18T10:17:46.990Z,57.50
2019-03-18T10:20:16.536Z,56.65
2019-03-18T10:22:46.936Z,55.93
2019-03-18T10:25:16.418Z,54.08
2019-03-18T10:27:45.989Z,52.64
2019-03-18T10:30:16.213Z,51.56
2019-03-18T10:32:45.760Z,51.50
2019-03-18T10:35:15.382Z,51.09
2019-03-18T10:37:44.920Z,51.49
2019-03-18T10:40:14.730Z,49.56
2019-03-18T10:42:44.303Z,49.56
2019-03-18T10:45:14.596Z,50.30
2019-03-18T10:47:44.223Z,49.61
2019-03-18T10:50:15.793Z,49.28
2019-03-18T10:52:45.395Z,50.18
2019-03-18T10:55:14.938Z,50.26
2019-03-18T10:57:44.473Z,49.44
2019-03-18T11:00:17.562Z,48.07
2019-03-18T11:02:47.739Z,47.61
2019-03-18T11:05:18.014Z,47.92
2019-03-18T11:07:51.430Z,47.99
2019-03-18T11:10:20.207Z,47.64
2019-03-18T11:12:50.517Z,48.60
2019-03-18T11:15:23.562Z,49.13
2019-03-18T11:17:53.955Z,48.53
2019-03-18T11:20:24.230Z,48.47
2019-03-18T11:22:56.104Z,47.15
2019-03-18T11:25:26.198Z,46.65
2019-03-18T11:27:56.412Z,46.31
2019-03-18T11:30:25.841Z,46.94
2019-03-18T11:32:55.394Z,47.88
2019-03-18T11:35:24.987Z,48.41
2019-03-18T11:37:54.528Z,50.93
2019-03-18T11:40:24.114Z,53.03
2019-03-18T11:42:53.621Z,57.40
2019-03-18T11:45:23.071Z,60.17
2019-03-18T11:47:52.685Z,62.77
2019-03-18T11:50:22.004Z,64.07
2019-03-18T11:52:51.649Z,64.08
2019-03-18T11:55:24.240Z,64.73
2019-03-18T11:57:53.845Z,64.58
2019-03-18T12:00:24.531Z,65.63
2019-03-18T12:02:54.154Z,64.58
2019-03-18T12:05:25.739Z,63.99
2019-03-18T12:07:55.314Z,63.96
2019-03-18T12:10:25.893Z,64.51
2019-03-18T12:12:55.999Z,63.03
2019-03-18T12:15:26.496Z,62.83
2019-03-18T12:17:56.048Z,62.99
2019-03-18T12:20:25.891Z,62.93
2019-03-18T12:22:55.690Z,63.86
2019-03-18T12:25:25.284Z,62.33
2019-03-18T12:27:54.481Z,61.62
2019-03-18T12:30:25.076Z,61.13
2019-03-18T12:32:54.614Z,60.60
2019-03-18T12:35:24.367Z,61.76
2019-03-18T12:37:54.032Z,61.47
2019-03-18T12:40:23.673Z,61.70
2019-03-18T12:42:53.180Z,59.93
2019-03-18T12:45:23.186Z,61.74
2019-03-18T12:47:52.594Z,61.96
2019-03-18T12:50:38.839Z,59.85
2019-03-18T12:52:54.613Z,60.62
2019-03-18T12:55:23.961Z,59.80
2019-03-18T12:57:53.572Z,56.11
2019-03-18T13:00:25.795Z,56.11
2019-03-18T13:02:55.334Z,56.72
2019-03-18T13:05:25.050Z,54.77
2019-03-18T13:07:54.551Z,55.68
2019-03-18T13:10:24.260Z,54.20
2019-03-18T13:12:54.049Z,55.70
2019-03-18T13:15:23.685Z,54.26
2019-03-18T13:17:53.294Z,54.09
2019-03-18T13:20:23.539Z,53.31
2019-03-18T13:22:54.242Z,49.79
2019-03-18T13:25:23.995Z,51.47
2019-03-18T13:27:53.521Z,49.48
2019-03-18T13:30:24.437Z,48.21
2019-03-18T13:32:53.966Z,47.57
2019-03-18T13:35:23.571Z,48.51
2019-03-18T13:37:53.041Z,50.79
2019-03-18T13:40:22.744Z,52.47
2019-03-18T13:42:52.305Z,54.12
2019-03-18T13:45:22.888Z,55.47
2019-03-18T13:47:52.404Z,56.29
2019-03-18T13:50:22.601Z,53.32
2019-03-18T13:52:52.137Z,53.12
2019-03-18T13:55:21.699Z,52.40
2019-03-18T13:57:51.303Z,51.99
2019-03-18T14:00:21.690Z,51.45
2019-03-18T14:02:51.285Z,51.30
2019-03-18T14:05:20.945Z,50.34
2019-03-18T14:08:00.063Z,50.10
2019-03-18T14:10:23.743Z,49.22
2019-03-18T14:12:53.130Z,49.61
2019-03-18T14:15:24.680Z,48.30
2019-03-18T14:17:54.311Z,46.77
2019-03-18T14:20:25.852Z,47.38
2019-03-18T14:22:55.431Z,47.18
2019-03-18T14:25:25.072Z,47.10
2019-03-18T14:27:54.666Z,47.13
2019-03-18T14:30:24.333Z,46.88
2019-03-18T14:32:53.879Z,47.75
2019-03-18T14:35:23.488Z,47.86
2019-03-18T14:37:53.023Z,48.69
2019-03-18T14:40:23.938Z,48.91
2019-03-18T14:42:53.547Z,47.98
2019-03-18T14:45:23.853Z,48.76
2019-03-18T14:47:53.417Z,48.34
2019-03-18T14:50:22.944Z,48.29
2019-03-18T14:52:52.554Z,48.67
2019-03-18T14:55:22.159Z,48.92
2019-03-18T14:57:51.890Z,49.74
2019-03-18T15:00:22.681Z,49.23
2019-03-18T15:02:52.272Z,49.53
2019-03-18T15:05:21.841Z,50.37
2019-03-18T15:07:51.992Z,47.67
2019-03-18T15:10:23.735Z,47.33
2019-03-18T15:12:53.298Z,48.45
2019-03-18T15:15:23.008Z,47.45
2019-03-18T15:17:52.637Z,46.28
2019-03-18T15:20:26.576Z,45.92
2019-03-18T15:22:55.498Z,46.05
2019-03-18T15:25:26.696Z,46.05
2019-03-18T15:27:57.154Z,46.47
2019-03-18T15:30:26.690Z,44.55
2019-03-18T15:32:56.310Z,45.03
2019-03-18T15:35:25.761Z,45.33
2019-03-18T15:37:55.308Z,47.93
2019-03-18T15:40:27.177Z,50.35
2019-03-18T15:42:56.786Z,51.62
2019-03-18T15:45:26.362Z,52.33
2019-03-18T15:47:55.902Z,53.31
2019-03-18T15:50:25.303Z,54.20
2019-03-18T15:52:54.903Z,53.60
2019-03-18T15:55:24.783Z,53.39
2019-03-18T15:57:54.436Z,53.21
2019-03-18T16:00:25.948Z,53.57
2019-03-18T16:02:55.505Z,52.90
2019-03-18T16:05:25.021Z,52.59
2019-03-18T16:07:54.494Z,51.45
2019-03-18T16:10:24.015Z,51.64
2019-03-18T16:12:53.583Z,51.13
2019-03-18T16:15:23.233Z,50.59
2019-03-18T16:17:52.713Z,50.89
2019-03-18T16:20:23.444Z,49.56
2019-03-18T16:22:53.030Z,49.54
2019-03-18T16:25:22.563Z,49.26
2019-03-18T16:27:52.148Z,49.95
2019-03-18T16:30:22.451Z,49.74
2019-03-18T16:32:51.724Z,49.69
2019-03-18T16:35:21.340Z,49.42
2019-03-18T16:37:51.629Z,49.34
2019-03-18T16:40:23.332Z,48.95
2019-03-18T16:42:53.023Z,48.59
2019-03-18T16:45:22.590Z,48.16
2019-03-18T16:47:52.283Z,47.84
2019-03-18T16:50:25.105Z,48.09
2019-03-18T16:52:54.695Z,47.56
2019-03-18T16:55:24.194Z,47.41
2019-03-18T16:57:53.878Z,46.44
2019-03-18T17:00:25.795Z,46.96
2019-03-18T17:02:55.224Z,47.17
2019-03-18T17:05:24.709Z,47.43
2019-03-18T17:07:54.699Z,47.65
2019-03-18T17:10:24.322Z,47.77
2019-03-18T17:12:53.880Z,48.18
2019-03-18T17:15:23.445Z,48.74
2019-03-18T17:17:52.964Z,49.02
2019-03-18T17:20:22.451Z,49.05
2019-03-18T17:22:52.079Z,49.69
2019-03-18T17:25:24.661Z,49.42
2019-03-18T17:27:54.117Z,49.89
2019-03-18T17:30:26.471Z,49.95
2019-03-18T17:32:54.950Z,50.81
2019-03-18T17:35:24.708Z,50.74
2019-03-18T17:37:54.202Z,51.28
2019-03-18T17:40:23.648Z,51.97
2019-03-18T17:42:52.933Z,51.99
2019-03-18T17:45:23.189Z,52.04
2019-03-18T17:47:52.719Z,52.25
2019-03-18T17:50:24.556Z,52.56
2019-03-18T17:53:02.368Z,53.20
2019-03-18T17:55:25.293Z,53.21
2019-03-18T17:57:54.593Z,53.60
2019-03-18T18:00:24.024Z,54.47
2019-03-18T18:02:53.393Z,54.47
2019-03-18T18:05:22.989Z,54.81
2019-03-18T18:07:52.624Z,55.33
2019-03-18T18:10:22.075Z,55.39
2019-03-18T18:12:51.688Z,55.73
2019-03-18T18:15:21.294Z,55.83
2019-03-18T18:17:50.584Z,55.75
2019-03-18T18:20:20.105Z,56.14
2019-03-18T18:22:49.084Z,56.24
2019-03-18T18:25:18.602Z,56.08
2019-03-18T18:27:48.235Z,55.92
2019-03-18T18:30:18.656Z,56.19
2019-03-18T18:32:48.263Z,56.20
2019-03-18T18:35:17.849Z,56.65
2019-03-18T18:37:47.318Z,56.78
2019-03-18T18:40:19.275Z,57.07
2019-03-18T18:42:48.775Z,57.68
2019-03-18T18:45:21.078Z,57.80
2019-03-18T18:47:49.709Z,58.52
2019-03-18T18:50:19.411Z,58.49
2019-03-18T18:52:48.962Z,58.81
2019-03-18T18:55:18.833Z,59.03
2019-03-18T18:57:48.464Z,58.55
2019-03-18T19:00:19.141Z,58.17
2019-03-18T19:02:48.761Z,58.11
2019-03-18T19:05:19.650Z,58.42
2019-03-18T19:07:49.268Z,58.04
2019-03-18T19:10:22.373Z,58.05
2019-03-18T19:12:54.063Z,57.96
2019-03-18T19:15:26.097Z,59.12
2019-03-18T19:17:55.583Z,57.64
2019-03-18T19:20:25.220Z,57.71
2019-03-18T19:22:54.661Z,56.63
2019-03-18T19:25:24.308Z,56.97
2019-03-18T19:27:53.837Z,56.77
2019-03-18T19:30:24.206Z,57.14
2019-03-18T19:32:53.792Z,57.29
2019-03-18T19:35:23.317Z,57.30
2019-03-18T19:37:53.038Z,57.50
2019-03-18T19:40:23.463Z,57.61
2019-03-18T19:42:53.339Z,57.78
2019-03-18T19:45:22.931Z,57.83
2019-03-18T19:47:53.438Z,57.94
2019-03-18T19:50:25.664Z,57.86
2019-03-18T19:52:55.293Z,57.13
2019-03-18T19:55:24.853Z,57.43
2019-03-18T19:57:54.450Z,57.70
2019-03-18T20:00:24.260Z,57.69
2019-03-18T20:02:53.941Z,57.63
2019-03-18T20:05:23.499Z,57.72
2019-03-18T20:07:53.104Z,57.87
2019-03-18T20:10:22.931Z,58.15
2019-03-18T20:12:52.524Z,58.11
2019-03-18T20:15:22.263Z,58.09
2019-03-18T20:17:51.914Z,58.17
2019-03-18T20:20:22.719Z,58.33
2019-03-18T20:22:52.295Z,58.29
2019-03-18T20:25:22.581Z,58.45
2019-03-18T20:27:52.186Z,58.59
2019-03-18T20:30:22.501Z,59.23
2019-03-18T20:32:51.953Z,59.14
2019-03-18T20:35:23.232Z,58.70
2019-03-18T20:37:52.838Z,58.99
2019-03-18T20:40:22.455Z,59.32
2019-03-18T20:42:53.749Z,58.74
2019-03-18T20:45:25.547Z,59.21
2019-03-18T20:47:55.229Z,59.16
2019-03-18T20:50:25.354Z,58.73
2019-03-18T20:52:54.385Z,58.58
2019-03-18T20:55:24.166Z,58.55
2019-03-18T20:57:53.839Z,58.21
2019-03-18T21:00:24.140Z,58.33
2019-03-18T21:03:14.499Z,58.53
2019-03-18T21:05:43.957Z,58.92
2019-03-18T21:08:13.867Z,59.22
2019-03-18T21:10:43.322Z,59.21
2019-03-18T21:13:13.043Z,59.43
2019-03-18T21:15:42.666Z,59.37
2019-03-18T21:18:13.072Z,59.42
2019-03-18T21:20:42.869Z,59.72
2019-03-18T21:23:12.852Z,59.69
2019-03-18T21:25:42.259Z,59.79
2019-03-18T21:28:12.396Z,60.00
2019-03-18T21:30:41.901Z,60.06
2019-03-18T21:33:12.120Z,60.38
2019-03-18T21:35:41.787Z,60.37
2019-03-18T21:38:11.514Z,60.65
2019-03-18T21:40:41.190Z,60.84
2019-03-18T21:43:10.755Z,60.58
2019-03-18T21:45:40.406Z,60.49
2019-03-18T21:48:10.462Z,60.25
2019-03-18T21:50:39.987Z,60.42
2019-03-18T21:53:09.634Z,60.59
2019-03-18T21:55:39.097Z,60.98
2019-03-18T21:58:08.443Z,60.95
2019-03-18T22:03:47.073Z,60.75
2019-03-18T22:06:16.410Z,59.35
2019-03-18T22:08:45.954Z,59.00
2019-03-18T22:11:15.400Z,59.11
2019-03-18T22:13:44.892Z,59.30
2019-03-18T22:16:14.402Z,59.53
2019-03-18T22:18:43.865Z,59.03
2019-03-18T22:21:13.582Z,59.28
2019-03-18T22:23:43.037Z,59.31
2019-03-18T22:26:13.199Z,59.43
2019-03-18T22:28:42.765Z,59.65
2019-03-18T22:31:12.782Z,59.97
2019-03-18T22:33:42.391Z,60.55
2019-03-18T22:36:12.213Z,61.35
2019-03-18T22:38:43.457Z,61.75
2019-03-18T22:41:14.379Z,61.84
2019-03-18T22:43:43.813Z,62.29
2019-03-18T22:46:13.533Z,62.68
2019-03-18T22:48:43.093Z,62.80
2019-03-18T22:51:12.720Z,63.91
2019-03-18T22:53:42.369Z,64.37
2019-03-18T22:56:12.174Z,64.83
2019-03-18T22:58:41.690Z,64.94
2019-03-18T23:01:13.078Z,64.89
2019-03-18T23:03:42.706Z,64.77
2019-03-18T23:06:12.241Z,64.93
2019-03-18T23:08:41.759Z,65.38
2019-03-18T23:11:11.828Z,65.25
2019-03-18T23:17:15.783Z,65.67
2019-03-18T23:19:45.336Z,66.28
2019-03-18T23:22:14.918Z,66.72
2019-03-18T23:24:44.163Z,67.05
2019-03-18T23:27:14.502Z,67.23
2019-03-18T23:29:44.029Z,67.33
2019-03-18T23:32:13.573Z,67.64
2019-03-18T23:34:43.026Z,67.83
2019-03-18T23:37:12.773Z,67.90
2019-03-18T23:39:42.274Z,68.21
2019-03-18T23:42:12.291Z,68.21
2019-03-18T23:44:41.899Z,68.68
2019-03-18T23:47:11.735Z,68.81
2019-03-18T23:49:41.293Z,69.02
2019-03-18T23:52:11.417Z,69.04
2019-03-18T23:54:41.030Z,69.12
2019-03-18T23:57:10.568Z,69.05
2019-03-18T23:59:40.144Z,68.97
